METAR Data
IDs: Format: Raw Decoded Include TAF

Data at: 1311 UTC 21 Apr 2021

PGUA 211256Z 09007KT 10SM SCT020 26/20 A2993 RMK AO2A SLP126 T02550201 $